sensor_id;sensor_type;location;lat;lon;timestamp;P1;durP1;ratioP1;P2;durP2;ratioP2
6689;SDS011;3382;51.576;8.076;2022-10-12T00:01:11;9.50;;;4.80;;
6689;SDS011;3382;51.576;8.076;2022-10-12T00:03:37;8.13;;;5.20;;
6689;SDS011;3382;51.576;8.076;2022-10-12T00:06:07;7.63;;;4.70;;
6689;SDS011;3382;51.576;8.076;2022-10-12T00:08:35;6.73;;;4.43;;
6689;SDS011;3382;51.576;8.076;2022-10-12T00:11:02;8.43;;;4.70;;
6689;SDS011;3382;51.576;8.076;2022-10-12T00:13:29;7.30;;;4.77;;
6689;SDS011;3382;51.576;8.076;2022-10-12T00:15:55;7.23;;;4.60;;
6689;SDS011;3382;51.576;8.076;2022-10-12T00:18:21;7.97;;;4.97;;
6689;SDS011;3382;51.576;8.076;2022-10-12T00:20:46;7.90;;;4.93;;
6689;SDS011;3382;51.576;8.076;2022-10-12T00:23:12;9.20;;;4.93;;
6689;SDS011;3382;51.576;8.076;2022-10-12T00:25:39;11.03;;;5.53;;
6689;SDS011;3382;51.576;8.076;2022-10-12T00:28:05;7.03;;;5.03;;
6689;SDS011;3382;51.576;8.076;2022-10-12T00:30:32;9.57;;;5.30;;
6689;SDS011;3382;51.576;8.076;2022-10-12T00:32:58;10.27;;;5.03;;
6689;SDS011;3382;51.576;8.076;2022-10-12T00:35:23;10.03;;;5.00;;
6689;SDS011;3382;51.576;8.076;2022-10-12T00:37:54;10.10;;;5.27;;
6689;SDS011;3382;51.576;8.076;2022-10-12T00:40:21;15.33;;;5.87;;
6689;SDS011;3382;51.576;8.076;2022-10-12T00:42:47;10.23;;;5.63;;
6689;SDS011;3382;51.576;8.076;2022-10-12T00:45:15;8.73;;;4.80;;
6689;SDS011;3382;51.576;8.076;2022-10-12T00:47:48;6.57;;;4.70;;
6689;SDS011;3382;51.576;8.076;2022-10-12T00:50:20;7.20;;;5.03;;
6689;SDS011;3382;51.576;8.076;2022-10-12T00:53:06;8.23;;;4.70;;
6689;SDS011;3382;51.576;8.076;2022-10-12T00:55:39;6.07;;;4.93;;
6689;SDS011;3382;51.576;8.076;2022-10-12T00:58:11;9.70;;;4.70;;
6689;SDS011;3382;51.576;8.076;2022-10-12T01:00:38;7.77;;;4.80;;
6689;SDS011;3382;51.576;8.076;2022-10-12T01:03:05;10.17;;;5.00;;
6689;SDS011;3382;51.576;8.076;2022-10-12T01:05:33;9.43;;;4.43;;
6689;SDS011;3382;51.576;8.076;2022-10-12T01:07:59;7.50;;;4.97;;
6689;SDS011;3382;51.576;8.076;2022-10-12T01:10:26;6.87;;;4.20;;
6689;SDS011;3382;51.576;8.076;2022-10-12T01:12:52;7.37;;;4.70;;
6689;SDS011;3382;51.576;8.076;2022-10-12T01:15:18;8.53;;;4.93;;
6689;SDS011;3382;51.576;8.076;2022-10-12T01:36:56;9.83;;;5.47;;
6689;SDS011;3382;51.576;8.076;2022-10-12T01:39:33;8.87;;;4.70;;
6689;SDS011;3382;51.576;8.076;2022-10-12T01:42:24;10.43;;;4.83;;
6689;SDS011;3382;51.576;8.076;2022-10-12T01:45:06;9.43;;;5.23;;
6689;SDS011;3382;51.576;8.076;2022-10-12T01:47:34;11.43;;;5.07;;
6689;SDS011;3382;51.576;8.076;2022-10-12T01:50:02;8.43;;;5.10;;
6689;SDS011;3382;51.576;8.076;2022-10-12T01:52:31;8.87;;;5.17;;
6689;SDS011;3382;51.576;8.076;2022-10-12T01:55:25;12.07;;;4.70;;
6689;SDS011;3382;51.576;8.076;2022-10-12T01:58:25;10.50;;;4.67;;
6689;SDS011;3382;51.576;8.076;2022-10-12T02:01:20;8.47;;;4.37;;
6689;SDS011;3382;51.576;8.076;2022-10-12T02:06:51;8.20;;;4.47;;
6689;SDS011;3382;51.576;8.076;2022-10-12T02:09:25;6.37;;;4.40;;
6689;SDS011;3382;51.576;8.076;2022-10-12T02:11:54;7.23;;;4.57;;
6689;SDS011;3382;51.576;8.076;2022-10-12T02:14:22;7.27;;;5.00;;
6689;SDS011;3382;51.576;8.076;2022-10-12T02:17:00;9.70;;;4.97;;
6689;SDS011;3382;51.576;8.076;2022-10-12T02:19:29;8.07;;;5.03;;
6689;SDS011;3382;51.576;8.076;2022-10-12T02:21:59;7.67;;;4.73;;
6689;SDS011;3382;51.576;8.076;2022-10-12T02:24:27;6.13;;;4.17;;
6689;SDS011;3382;51.576;8.076;2022-10-12T02:26:55;6.87;;;5.00;;
6689;SDS011;3382;51.576;8.076;2022-10-12T02:29:23;6.77;;;4.67;;
6689;SDS011;3382;51.576;8.076;2022-10-12T02:32:04;8.50;;;4.27;;
6689;SDS011;3382;51.576;8.076;2022-10-12T02:34:45;9.10;;;4.73;;
6689;SDS011;3382;51.576;8.076;2022-10-12T02:37:29;8.50;;;4.70;;
6689;SDS011;3382;51.576;8.076;2022-10-12T02:40:07;5.47;;;4.30;;
6689;SDS011;3382;51.576;8.076;2022-10-12T02:42:54;4.43;;;4.00;;
6689;SDS011;3382;51.576;8.076;2022-10-12T02:45:25;6.87;;;4.17;;
6689;SDS011;3382;51.576;8.076;2022-10-12T02:47:53;5.60;;;4.07;;
6689;SDS011;3382;51.576;8.076;2022-10-12T02:50:20;7.47;;;4.27;;
6689;SDS011;3382;51.576;8.076;2022-10-12T02:52:48;8.97;;;4.67;;
6689;SDS011;3382;51.576;8.076;2022-10-12T02:55:14;7.37;;;4.90;;
6689;SDS011;3382;51.576;8.076;2022-10-12T02:57:40;6.50;;;4.17;;
6689;SDS011;3382;51.576;8.076;2022-10-12T03:00:06;7.37;;;4.17;;
6689;SDS011;3382;51.576;8.076;2022-10-12T03:02:32;7.20;;;4.50;;
6689;SDS011;3382;51.576;8.076;2022-10-12T03:04:58;7.27;;;3.93;;
6689;SDS011;3382;51.576;8.076;2022-10-12T03:07:24;8.03;;;3.80;;
6689;SDS011;3382;51.576;8.076;2022-10-12T03:09:49;5.87;;;3.80;;
6689;SDS011;3382;51.576;8.076;2022-10-12T03:12:15;6.37;;;4.00;;
6689;SDS011;3382;51.576;8.076;2022-10-12T03:14:40;5.27;;;3.67;;
6689;SDS011;3382;51.576;8.076;2022-10-12T03:17:06;12.70;;;4.30;;
6689;SDS011;3382;51.576;8.076;2022-10-12T03:19:32;5.50;;;4.10;;
6689;SDS011;3382;51.576;8.076;2022-10-12T03:21:57;8.33;;;4.53;;
6689;SDS011;3382;51.576;8.076;2022-10-12T03:24:26;6.40;;;4.43;;
6689;SDS011;3382;51.576;8.076;2022-10-12T03:26:51;6.47;;;3.90;;
6689;SDS011;3382;51.576;8.076;2022-10-12T03:29:17;9.23;;;4.13;;
6689;SDS011;3382;51.576;8.076;2022-10-12T03:31:43;9.50;;;4.53;;
6689;SDS011;3382;51.576;8.076;2022-10-12T03:34:08;6.07;;;3.80;;
6689;SDS011;3382;51.576;8.076;2022-10-12T03:36:34;4.87;;;3.57;;
6689;SDS011;3382;51.576;8.076;2022-10-12T03:38:59;7.90;;;3.67;;
6689;SDS011;3382;51.576;8.076;2022-10-12T03:41:25;6.40;;;4.13;;
6689;SDS011;3382;51.576;8.076;2022-10-12T03:43:50;9.73;;;4.67;;
6689;SDS011;3382;51.576;8.076;2022-10-12T03:46:16;6.43;;;4.33;;
6689;SDS011;3382;51.576;8.076;2022-10-12T03:48:42;9.10;;;4.60;;
6689;SDS011;3382;51.576;8.076;2022-10-12T03:51:07;4.93;;;3.53;;
6689;SDS011;3382;51.576;8.076;2022-10-12T03:53:33;9.37;;;4.17;;
6689;SDS011;3382;51.576;8.076;2022-10-12T03:55:59;6.67;;;4.10;;
6689;SDS011;3382;51.576;8.076;2022-10-12T03:58:24;6.20;;;4.20;;
6689;SDS011;3382;51.576;8.076;2022-10-12T04:00:53;11.20;;;4.50;;
6689;SDS011;3382;51.576;8.076;2022-10-12T04:03:19;8.57;;;4.30;;
6689;SDS011;3382;51.576;8.076;2022-10-12T04:05:51;6.57;;;3.73;;
6689;SDS011;3382;51.576;8.076;2022-10-12T04:08:21;6.13;;;4.27;;
6689;SDS011;3382;51.576;8.076;2022-10-12T04:10:48;9.10;;;3.80;;
6689;SDS011;3382;51.576;8.076;2022-10-12T04:13:17;6.83;;;3.80;;
6689;SDS011;3382;51.576;8.076;2022-10-12T04:15:43;7.93;;;4.00;;
6689;SDS011;3382;51.576;8.076;2022-10-12T04:18:08;8.87;;;4.70;;
6689;SDS011;3382;51.576;8.076;2022-10-12T04:20:34;7.67;;;4.40;;
6689;SDS011;3382;51.576;8.076;2022-10-12T04:23:00;3.83;;;3.30;;
6689;SDS011;3382;51.576;8.076;2022-10-12T04:25:25;7.20;;;4.53;;
6689;SDS011;3382;51.576;8.076;2022-10-12T04:27:51;6.30;;;4.17;;
6689;SDS011;3382;51.576;8.076;2022-10-12T04:30:17;6.87;;;4.17;;
6689;SDS011;3382;51.576;8.076;2022-10-12T04:32:42;7.33;;;3.97;;
6689;SDS011;3382;51.576;8.076;2022-10-12T04:35:08;7.13;;;4.30;;
6689;SDS011;3382;51.576;8.076;2022-10-12T04:37:34;7.23;;;3.60;;
6689;SDS011;3382;51.576;8.076;2022-10-12T04:40:00;6.33;;;4.20;;
6689;SDS011;3382;51.576;8.076;2022-10-12T04:42:26;7.37;;;4.23;;
6689;SDS011;3382;51.576;8.076;2022-10-12T04:44:51;5.93;;;4.07;;
6689;SDS011;3382;51.576;8.076;2022-10-12T04:47:17;8.13;;;4.17;;
6689;SDS011;3382;51.576;8.076;2022-10-12T04:49:42;4.73;;;3.50;;
6689;SDS011;3382;51.576;8.076;2022-10-12T04:52:08;5.80;;;3.50;;
6689;SDS011;3382;51.576;8.076;2022-10-12T04:54:33;3.57;;;3.17;;
6689;SDS011;3382;51.576;8.076;2022-10-12T04:56:59;11.47;;;3.93;;
6689;SDS011;3382;51.576;8.076;2022-10-12T04:59:25;5.90;;;3.37;;
6689;SDS011;3382;51.576;8.076;2022-10-12T05:01:50;6.60;;;3.67;;
6689;SDS011;3382;51.576;8.076;2022-10-12T05:04:16;5.93;;;3.33;;
6689;SDS011;3382;51.576;8.076;2022-10-12T05:06:42;7.37;;;3.73;;
6689;SDS011;3382;51.576;8.076;2022-10-12T05:09:07;7.07;;;3.20;;
6689;SDS011;3382;51.576;8.076;2022-10-12T05:11:33;5.57;;;3.20;;
6689;SDS011;3382;51.576;8.076;2022-10-12T05:13:58;9.67;;;4.10;;
6689;SDS011;3382;51.576;8.076;2022-10-12T05:16:24;5.77;;;3.60;;
6689;SDS011;3382;51.576;8.076;2022-10-12T05:18:50;6.63;;;3.43;;
6689;SDS011;3382;51.576;8.076;2022-10-12T05:21:15;5.13;;;3.30;;
6689;SDS011;3382;51.576;8.076;2022-10-12T05:23:41;3.53;;;3.13;;
6689;SDS011;3382;51.576;8.076;2022-10-12T05:26:06;4.33;;;3.40;;
6689;SDS011;3382;51.576;8.076;2022-10-12T05:28:33;7.63;;;3.67;;
6689;SDS011;3382;51.576;8.076;2022-10-12T05:30:58;5.37;;;4.03;;
6689;SDS011;3382;51.576;8.076;2022-10-12T05:33:24;12.27;;;4.13;;
6689;SDS011;3382;51.576;8.076;2022-10-12T05:35:49;7.43;;;3.87;;
6689;SDS011;3382;51.576;8.076;2022-10-12T05:38:15;7.57;;;3.77;;
6689;SDS011;3382;51.576;8.076;2022-10-12T05:40:41;7.77;;;2.50;;
6689;SDS011;3382;51.576;8.076;2022-10-12T05:43:07;4.90;;;3.60;;
6689;SDS011;3382;51.576;8.076;2022-10-12T05:45:32;9.77;;;4.63;;
6689;SDS011;3382;51.576;8.076;2022-10-12T05:47:58;8.77;;;4.37;;
6689;SDS011;3382;51.576;8.076;2022-10-12T05:50:23;8.60;;;5.30;;
6689;SDS011;3382;51.576;8.076;2022-10-12T05:52:49;8.03;;;4.10;;
6689;SDS011;3382;51.576;8.076;2022-10-12T05:55:15;6.30;;;4.10;;
6689;SDS011;3382;51.576;8.076;2022-10-12T05:57:40;9.60;;;4.60;;
6689;SDS011;3382;51.576;8.076;2022-10-12T06:00:06;7.50;;;4.83;;
6689;SDS011;3382;51.576;8.076;2022-10-12T06:02:33;10.43;;;6.70;;
6689;SDS011;3382;51.576;8.076;2022-10-12T06:04:59;9.23;;;4.90;;
6689;SDS011;3382;51.576;8.076;2022-10-12T06:07:25;6.83;;;5.10;;
6689;SDS011;3382;51.576;8.076;2022-10-12T06:09:51;9.00;;;5.37;;
6689;SDS011;3382;51.576;8.076;2022-10-12T06:12:16;9.43;;;4.97;;
6689;SDS011;3382;51.576;8.076;2022-10-12T06:14:42;7.60;;;4.87;;
6689;SDS011;3382;51.576;8.076;2022-10-12T06:17:08;12.70;;;5.23;;
6689;SDS011;3382;51.576;8.076;2022-10-12T06:19:34;12.50;;;4.80;;
6689;SDS011;3382;51.576;8.076;2022-10-12T06:22:00;8.17;;;4.57;;
6689;SDS011;3382;51.576;8.076;2022-10-12T06:24:25;7.37;;;4.37;;
6689;SDS011;3382;51.576;8.076;2022-10-12T06:26:51;10.17;;;4.93;;
6689;SDS011;3382;51.576;8.076;2022-10-12T06:29:16;6.53;;;4.87;;
6689;SDS011;3382;51.576;8.076;2022-10-12T06:31:42;6.47;;;4.87;;
6689;SDS011;3382;51.576;8.076;2022-10-12T06:34:08;12.97;;;5.00;;
6689;SDS011;3382;51.576;8.076;2022-10-12T06:36:34;7.33;;;4.40;;
6689;SDS011;3382;51.576;8.076;2022-10-12T06:39:00;9.20;;;5.10;;
6689;SDS011;3382;51.576;8.076;2022-10-12T06:41:25;7.30;;;4.83;;
6689;SDS011;3382;51.576;8.076;2022-10-12T06:43:51;9.37;;;5.00;;
6689;SDS011;3382;51.576;8.076;2022-10-12T06:46:16;8.80;;;5.20;;
6689;SDS011;3382;51.576;8.076;2022-10-12T06:48:42;7.80;;;4.00;;
6689;SDS011;3382;51.576;8.076;2022-10-12T06:51:07;10.17;;;4.83;;
6689;SDS011;3382;51.576;8.076;2022-10-12T06:53:33;11.00;;;4.83;;
6689;SDS011;3382;51.576;8.076;2022-10-12T06:56:04;7.67;;;4.70;;
6689;SDS011;3382;51.576;8.076;2022-10-12T06:58:33;8.90;;;4.93;;
6689;SDS011;3382;51.576;8.076;2022-10-12T07:01:06;13.17;;;5.13;;
6689;SDS011;3382;51.576;8.076;2022-10-12T07:03:34;5.87;;;4.40;;
6689;SDS011;3382;51.576;8.076;2022-10-12T07:06:07;13.20;;;5.00;;
6689;SDS011;3382;51.576;8.076;2022-10-12T07:08:33;8.23;;;4.70;;
6689;SDS011;3382;51.576;8.076;2022-10-12T07:11:00;11.27;;;4.53;;
6689;SDS011;3382;51.576;8.076;2022-10-12T07:13:26;5.77;;;4.27;;
6689;SDS011;3382;51.576;8.076;2022-10-12T07:15:52;6.00;;;4.47;;
6689;SDS011;3382;51.576;8.076;2022-10-12T07:18:18;6.27;;;4.10;;
6689;SDS011;3382;51.576;8.076;2022-10-12T07:20:43;10.63;;;5.50;;
6689;SDS011;3382;51.576;8.076;2022-10-12T07:23:09;9.83;;;4.83;;
6689;SDS011;3382;51.576;8.076;2022-10-12T07:25:34;8.00;;;4.67;;
6689;SDS011;3382;51.576;8.076;2022-10-12T07:28:00;12.77;;;5.33;;
6689;SDS011;3382;51.576;8.076;2022-10-12T07:30:29;8.20;;;4.80;;
6689;SDS011;3382;51.576;8.076;2022-10-12T07:32:54;7.57;;;4.57;;
6689;SDS011;3382;51.576;8.076;2022-10-12T07:35:20;8.20;;;4.33;;
6689;SDS011;3382;51.576;8.076;2022-10-12T07:37:47;8.63;;;4.30;;
6689;SDS011;3382;51.576;8.076;2022-10-12T07:40:13;6.57;;;3.57;;
6689;SDS011;3382;51.576;8.076;2022-10-12T07:42:38;10.57;;;4.07;;
6689;SDS011;3382;51.576;8.076;2022-10-12T07:45:04;7.07;;;3.50;;
6689;SDS011;3382;51.576;8.076;2022-10-12T07:47:30;7.53;;;4.40;;
6689;SDS011;3382;51.576;8.076;2022-10-12T07:49:56;8.53;;;3.57;;
6689;SDS011;3382;51.576;8.076;2022-10-12T07:52:21;7.50;;;3.10;;
6689;SDS011;3382;51.576;8.076;2022-10-12T07:54:47;7.40;;;3.30;;
6689;SDS011;3382;51.576;8.076;2022-10-12T07:57:13;5.67;;;3.27;;
6689;SDS011;3382;51.576;8.076;2022-10-12T07:59:38;7.37;;;3.23;;
6689;SDS011;3382;51.576;8.076;2022-10-12T08:02:04;7.93;;;3.90;;
6689;SDS011;3382;51.576;8.076;2022-10-12T08:04:29;7.57;;;3.13;;
6689;SDS011;3382;51.576;8.076;2022-10-12T08:06:55;7.97;;;3.37;;
6689;SDS011;3382;51.576;8.076;2022-10-12T08:09:23;3.67;;;2.93;;
6689;SDS011;3382;51.576;8.076;2022-10-12T08:11:49;6.37;;;3.47;;
6689;SDS011;3382;51.576;8.076;2022-10-12T08:14:14;6.43;;;3.20;;
6689;SDS011;3382;51.576;8.076;2022-10-12T08:16:44;10.63;;;3.30;;
6689;SDS011;3382;51.576;8.076;2022-10-12T08:19:09;8.70;;;4.10;;
6689;SDS011;3382;51.576;8.076;2022-10-12T08:21:35;6.70;;;4.30;;
6689;SDS011;3382;51.576;8.076;2022-10-12T08:24:01;11.33;;;3.60;;
6689;SDS011;3382;51.576;8.076;2022-10-12T08:26:26;8.33;;;3.90;;
6689;SDS011;3382;51.576;8.076;2022-10-12T08:28:54;7.60;;;3.37;;
6689;SDS011;3382;51.576;8.076;2022-10-12T08:31:19;9.47;;;3.83;;
6689;SDS011;3382;51.576;8.076;2022-10-12T08:33:45;8.23;;;3.47;;
6689;SDS011;3382;51.576;8.076;2022-10-12T08:36:11;8.27;;;3.50;;
6689;SDS011;3382;51.576;8.076;2022-10-12T08:38:37;7.93;;;4.10;;
6689;SDS011;3382;51.576;8.076;2022-10-12T08:46:19;10.17;;;3.73;;
6689;SDS011;3382;51.576;8.076;2022-10-12T08:48:49;7.30;;;3.87;;
6689;SDS011;3382;51.576;8.076;2022-10-12T08:51:22;7.33;;;4.00;;
6689;SDS011;3382;51.576;8.076;2022-10-12T08:53:59;6.13;;;3.60;;
6689;SDS011;3382;51.576;8.076;2022-10-12T08:56:36;10.47;;;4.60;;
6689;SDS011;3382;51.576;8.076;2022-10-12T08:59:04;11.87;;;4.50;;
6689;SDS011;3382;51.576;8.076;2022-10-12T09:01:31;7.90;;;4.13;;
6689;SDS011;3382;51.576;8.076;2022-10-12T09:09:56;7.87;;;4.00;;
6689;SDS011;3382;51.576;8.076;2022-10-12T09:15:30;10.90;;;3.67;;
6689;SDS011;3382;51.576;8.076;2022-10-12T09:18:01;8.30;;;3.20;;
6689;SDS011;3382;51.576;8.076;2022-10-12T09:20:35;9.10;;;3.30;;
6689;SDS011;3382;51.576;8.076;2022-10-12T09:23:16;8.63;;;3.40;;
6689;SDS011;3382;51.576;8.076;2022-10-12T09:25:48;5.93;;;3.00;;
6689;SDS011;3382;51.576;8.076;2022-10-12T09:28:33;6.30;;;3.17;;
6689;SDS011;3382;51.576;8.076;2022-10-12T09:33:42;4.50;;;2.93;;
6689;SDS011;3382;51.576;8.076;2022-10-12T09:36:16;8.17;;;3.50;;
6689;SDS011;3382;51.576;8.076;2022-10-12T09:38:44;11.73;;;4.03;;
6689;SDS011;3382;51.576;8.076;2022-10-12T09:41:53;5.83;;;3.17;;
6689;SDS011;3382;51.576;8.076;2022-10-12T09:44:21;12.23;;;3.47;;
6689;SDS011;3382;51.576;8.076;2022-10-12T09:47:03;3.37;;;2.70;;
6689;SDS011;3382;51.576;8.076;2022-10-12T09:49:47;9.77;;;3.00;;
6689;SDS011;3382;51.576;8.076;2022-10-12T09:52:14;7.80;;;2.93;;
6689;SDS011;3382;51.576;8.076;2022-10-12T09:55:03;9.27;;;3.00;;
6689;SDS011;3382;51.576;8.076;2022-10-12T09:57:40;7.33;;;2.87;;
6689;SDS011;3382;51.576;8.076;2022-10-12T10:02:51;12.70;;;2.93;;
6689;SDS011;3382;51.576;8.076;2022-10-12T10:05:27;5.67;;;2.60;;
6689;SDS011;3382;51.576;8.076;2022-10-12T10:10:46;7.93;;;2.67;;
6689;SDS011;3382;51.576;8.076;2022-10-12T10:13:16;7.90;;;2.17;;
6689;SDS011;3382;51.576;8.076;2022-10-12T10:15:42;6.10;;;2.07;;
6689;SDS011;3382;51.576;8.076;2022-10-12T10:18:21;5.37;;;2.60;;
6689;SDS011;3382;51.576;8.076;2022-10-12T10:20:53;7.73;;;2.70;;
6689;SDS011;3382;51.576;8.076;2022-10-12T10:24:23;6.10;;;2.57;;
6689;SDS011;3382;51.576;8.076;2022-10-12T10:26:19;4.70;;;2.27;;
6689;SDS011;3382;51.576;8.076;2022-10-12T10:28:47;7.00;;;2.57;;
6689;SDS011;3382;51.576;8.076;2022-10-12T10:34:02;6.63;;;2.50;;
6689;SDS011;3382;51.576;8.076;2022-10-12T10:36:43;6.27;;;2.50;;
6689;SDS011;3382;51.576;8.076;2022-10-12T10:39:23;7.87;;;2.30;;
6689;SDS011;3382;51.576;8.076;2022-10-12T10:41:51;5.03;;;2.20;;
6689;SDS011;3382;51.576;8.076;2022-10-12T10:44:29;5.07;;;2.30;;
6689;SDS011;3382;51.576;8.076;2022-10-12T10:47:09;8.57;;;3.17;;
6689;SDS011;3382;51.576;8.076;2022-10-12T10:49:41;8.53;;;3.50;;
6689;SDS011;3382;51.576;8.076;2022-10-12T10:55:20;6.73;;;2.90;;
6689;SDS011;3382;51.576;8.076;2022-10-12T10:58:04;8.67;;;3.50;;
6689;SDS011;3382;51.576;8.076;2022-10-12T11:00:31;5.77;;;2.70;;
6689;SDS011;3382;51.576;8.076;2022-10-12T11:03:02;8.10;;;2.90;;
6689;SDS011;3382;51.576;8.076;2022-10-12T11:05:45;8.83;;;2.67;;
6689;SDS011;3382;51.576;8.076;2022-10-12T11:08:21;5.47;;;2.10;;
6689;SDS011;3382;51.576;8.076;2022-10-12T11:10:55;8.00;;;2.63;;
6689;SDS011;3382;51.576;8.076;2022-10-12T11:13:37;5.90;;;2.97;;
6689;SDS011;3382;51.576;8.076;2022-10-12T11:16:24;6.10;;;3.30;;
6689;SDS011;3382;51.576;8.076;2022-10-12T11:18:51;4.27;;;2.27;;
6689;SDS011;3382;51.576;8.076;2022-10-12T11:21:37;5.57;;;2.20;;
6689;SDS011;3382;51.576;8.076;2022-10-12T11:29:25;3.67;;;2.40;;
6689;SDS011;3382;51.576;8.076;2022-10-12T11:31:52;7.07;;;2.30;;
6689;SDS011;3382;51.576;8.076;2022-10-12T11:34:30;4.20;;;1.73;;
6689;SDS011;3382;51.576;8.076;2022-10-12T11:37:03;4.97;;;1.60;;
6689;SDS011;3382;51.576;8.076;2022-10-12T11:39:39;1.77;;;1.30;;
6689;SDS011;3382;51.576;8.076;2022-10-12T11:42:10;5.60;;;1.80;;
6689;SDS011;3382;51.576;8.076;2022-10-12T11:44:42;5.27;;;1.93;;
6689;SDS011;3382;51.576;8.076;2022-10-12T11:49:57;3.93;;;1.40;;
6689;SDS011;3382;51.576;8.076;2022-10-12T11:52:24;4.57;;;1.77;;
6689;SDS011;3382;51.576;8.076;2022-10-12T11:54:53;2.37;;;1.17;;
6689;SDS011;3382;51.576;8.076;2022-10-12T11:57:25;5.33;;;2.10;;
6689;SDS011;3382;51.576;8.076;2022-10-12T11:59:57;3.50;;;1.43;;
6689;SDS011;3382;51.576;8.076;2022-10-12T12:02:28;2.80;;;1.70;;
6689;SDS011;3382;51.576;8.076;2022-10-12T12:04:58;2.57;;;1.30;;
6689;SDS011;3382;51.576;8.076;2022-10-12T12:15:39;2.00;;;1.67;;
6689;SDS011;3382;51.576;8.076;2022-10-12T12:18:28;2.80;;;1.43;;
6689;SDS011;3382;51.576;8.076;2022-10-12T12:28:33;4.17;;;1.83;;
6689;SDS011;3382;51.576;8.076;2022-10-12T12:31:03;4.67;;;1.67;;
6689;SDS011;3382;51.576;8.076;2022-10-12T12:33:46;3.80;;;1.60;;
6689;SDS011;3382;51.576;8.076;2022-10-12T12:36:27;1.70;;;1.47;;
6689;SDS011;3382;51.576;8.076;2022-10-12T12:39:30;1.57;;;1.23;;
6689;SDS011;3382;51.576;8.076;2022-10-12T12:41:59;2.93;;;1.60;;
6689;SDS011;3382;51.576;8.076;2022-10-12T12:52:01;2.63;;;1.33;;
6689;SDS011;3382;51.576;8.076;2022-10-12T12:54:36;5.63;;;1.57;;
6689;SDS011;3382;51.576;8.076;2022-10-12T13:19:16;1.70;;;1.30;;
6689;SDS011;3382;51.576;8.076;2022-10-12T13:21:44;4.47;;;1.70;;
6689;SDS011;3382;51.576;8.076;2022-10-12T13:26:44;4.67;;;1.80;;
6689;SDS011;3382;51.576;8.076;2022-10-12T13:29:21;1.17;;;1.07;;
6689;SDS011;3382;51.576;8.076;2022-10-12T13:31:53;1.67;;;0.80;;
6689;SDS011;3382;51.576;8.076;2022-10-12T13:34:26;3.07;;;1.53;;
6689;SDS011;3382;51.576;8.076;2022-10-12T13:36:59;2.63;;;1.40;;
6689;SDS011;3382;51.576;8.076;2022-10-12T13:39:26;2.10;;;1.30;;
6689;SDS011;3382;51.576;8.076;2022-10-12T13:41:53;1.67;;;1.00;;
6689;SDS011;3382;51.576;8.076;2022-10-12T13:46:54;1.97;;;1.30;;
6689;SDS011;3382;51.576;8.076;2022-10-12T13:49:29;4.53;;;1.70;;
6689;SDS011;3382;51.576;8.076;2022-10-12T13:52:02;2.80;;;1.37;;
6689;SDS011;3382;51.576;8.076;2022-10-12T13:54:45;2.37;;;1.40;;
6689;SDS011;3382;51.576;8.076;2022-10-12T14:02:58;4.80;;;1.90;;
6689;SDS011;3382;51.576;8.076;2022-10-12T14:05:27;2.60;;;1.50;;
6689;SDS011;3382;51.576;8.076;2022-10-12T14:07:58;2.93;;;1.70;;
6689;SDS011;3382;51.576;8.076;2022-10-12T14:10:55;2.17;;;1.63;;
6689;SDS011;3382;51.576;8.076;2022-10-12T14:13:29;3.07;;;2.07;;
6689;SDS011;3382;51.576;8.076;2022-10-12T14:15:57;6.80;;;2.30;;
6689;SDS011;3382;51.576;8.076;2022-10-12T14:18:37;9.57;;;2.40;;
6689;SDS011;3382;51.576;8.076;2022-10-12T14:21:06;4.27;;;1.97;;
6689;SDS011;3382;51.576;8.076;2022-10-12T14:23:42;3.33;;;2.10;;
6689;SDS011;3382;51.576;8.076;2022-10-12T14:26:20;5.27;;;2.00;;
6689;SDS011;3382;51.576;8.076;2022-10-12T14:28:53;6.27;;;2.50;;
6689;SDS011;3382;51.576;8.076;2022-10-12T14:31:44;6.37;;;2.23;;
6689;SDS011;3382;51.576;8.076;2022-10-12T14:37:01;3.70;;;2.10;;
6689;SDS011;3382;51.576;8.076;2022-10-12T14:39:29;3.40;;;2.00;;
6689;SDS011;3382;51.576;8.076;2022-10-12T14:41:55;9.90;;;2.03;;
6689;SDS011;3382;51.576;8.076;2022-10-12T14:44:23;4.03;;;2.23;;
6689;SDS011;3382;51.576;8.076;2022-10-12T14:49:45;4.57;;;1.80;;
6689;SDS011;3382;51.576;8.076;2022-10-12T14:52:35;5.60;;;1.93;;
6689;SDS011;3382;51.576;8.076;2022-10-12T14:55:20;5.50;;;2.37;;
6689;SDS011;3382;51.576;8.076;2022-10-12T14:57:48;2.90;;;1.40;;
6689;SDS011;3382;51.576;8.076;2022-10-12T15:00:30;2.90;;;1.87;;
6689;SDS011;3382;51.576;8.076;2022-10-12T15:02:57;5.97;;;2.57;;
6689;SDS011;3382;51.576;8.076;2022-10-12T15:05:23;7.43;;;2.13;;
6689;SDS011;3382;51.576;8.076;2022-10-12T15:07:50;3.53;;;2.33;;
6689;SDS011;3382;51.576;8.076;2022-10-12T15:10:17;1.93;;;1.40;;
6689;SDS011;3382;51.576;8.076;2022-10-12T15:12:44;3.87;;;2.13;;
6689;SDS011;3382;51.576;8.076;2022-10-12T15:15:13;5.50;;;2.37;;
6689;SDS011;3382;51.576;8.076;2022-10-12T15:18:00;5.43;;;2.33;;
6689;SDS011;3382;51.576;8.076;2022-10-12T15:20:27;7.33;;;3.20;;
6689;SDS011;3382;51.576;8.076;2022-10-12T15:22:54;5.93;;;2.70;;
6689;SDS011;3382;51.576;8.076;2022-10-12T15:25:22;3.63;;;1.50;;
6689;SDS011;3382;51.576;8.076;2022-10-12T15:28:03;9.60;;;2.57;;
6689;SDS011;3382;51.576;8.076;2022-10-12T15:30:29;7.20;;;2.47;;
6689;SDS011;3382;51.576;8.076;2022-10-12T15:32:55;4.50;;;2.77;;
6689;SDS011;3382;51.576;8.076;2022-10-12T15:35:25;5.00;;;2.53;;
6689;SDS011;3382;51.576;8.076;2022-10-12T15:37:53;6.10;;;2.10;;
6689;SDS011;3382;51.576;8.076;2022-10-12T15:40:22;6.17;;;2.33;;
6689;SDS011;3382;51.576;8.076;2022-10-12T15:42:48;10.50;;;2.70;;
6689;SDS011;3382;51.576;8.076;2022-10-12T15:45:18;8.50;;;2.27;;
6689;SDS011;3382;51.576;8.076;2022-10-12T15:47:52;5.57;;;3.10;;
6689;SDS011;3382;51.576;8.076;2022-10-12T15:50:19;7.57;;;2.70;;
6689;SDS011;3382;51.576;8.076;2022-10-12T15:52:47;6.87;;;2.77;;
6689;SDS011;3382;51.576;8.076;2022-10-12T15:55:17;8.37;;;2.80;;
6689;SDS011;3382;51.576;8.076;2022-10-12T15:57:43;7.33;;;2.40;;
6689;SDS011;3382;51.576;8.076;2022-10-12T16:00:10;6.33;;;2.43;;
6689;SDS011;3382;51.576;8.076;2022-10-12T16:02:37;8.67;;;2.93;;
6689;SDS011;3382;51.576;8.076;2022-10-12T16:05:03;4.10;;;2.50;;
6689;SDS011;3382;51.576;8.076;2022-10-12T16:07:34;8.87;;;2.60;;
6689;SDS011;3382;51.576;8.076;2022-10-12T16:09:59;7.13;;;2.80;;
6689;SDS011;3382;51.576;8.076;2022-10-12T16:12:25;12.60;;;2.77;;
6689;SDS011;3382;51.576;8.076;2022-10-12T16:14:51;8.47;;;2.90;;
6689;SDS011;3382;51.576;8.076;2022-10-12T16:17:16;6.17;;;2.80;;
6689;SDS011;3382;51.576;8.076;2022-10-12T16:19:42;8.63;;;2.57;;
6689;SDS011;3382;51.576;8.076;2022-10-12T16:22:07;7.30;;;2.87;;
6689;SDS011;3382;51.576;8.076;2022-10-12T16:24:34;6.23;;;2.80;;
6689;SDS011;3382;51.576;8.076;2022-10-12T16:26:59;6.20;;;3.20;;
6689;SDS011;3382;51.576;8.076;2022-10-12T16:29:25;5.37;;;3.00;;
6689;SDS011;3382;51.576;8.076;2022-10-12T16:31:50;8.10;;;2.83;;
6689;SDS011;3382;51.576;8.076;2022-10-12T16:34:19;13.47;;;3.40;;
6689;SDS011;3382;51.576;8.076;2022-10-12T16:36:44;8.33;;;3.27;;
6689;SDS011;3382;51.576;8.076;2022-10-12T16:39:10;9.27;;;3.27;;
6689;SDS011;3382;51.576;8.076;2022-10-12T16:41:35;6.27;;;3.20;;
6689;SDS011;3382;51.576;8.076;2022-10-12T16:44:01;7.37;;;3.20;;
6689;SDS011;3382;51.576;8.076;2022-10-12T16:46:28;6.13;;;3.23;;
6689;SDS011;3382;51.576;8.076;2022-10-12T16:48:55;5.07;;;3.43;;
6689;SDS011;3382;51.576;8.076;2022-10-12T16:51:20;6.57;;;3.83;;
6689;SDS011;3382;51.576;8.076;2022-10-12T16:53:46;5.63;;;3.30;;
6689;SDS011;3382;51.576;8.076;2022-10-12T16:56:11;6.20;;;3.30;;
6689;SDS011;3382;51.576;8.076;2022-10-12T16:58:37;6.17;;;3.60;;
6689;SDS011;3382;51.576;8.076;2022-10-12T17:01:09;6.63;;;3.73;;
6689;SDS011;3382;51.576;8.076;2022-10-12T17:03:36;10.77;;;3.87;;
6689;SDS011;3382;51.576;8.076;2022-10-12T17:06:02;7.83;;;3.37;;
6689;SDS011;3382;51.576;8.076;2022-10-12T17:08:30;8.17;;;3.70;;
6689;SDS011;3382;51.576;8.076;2022-10-12T17:11:06;7.73;;;3.37;;
6689;SDS011;3382;51.576;8.076;2022-10-12T17:13:37;5.17;;;3.30;;
6689;SDS011;3382;51.576;8.076;2022-10-12T17:16:04;8.20;;;3.60;;
6689;SDS011;3382;51.576;8.076;2022-10-12T17:18:50;5.90;;;3.87;;
6689;SDS011;3382;51.576;8.076;2022-10-12T17:21:16;8.63;;;4.83;;
6689;SDS011;3382;51.576;8.076;2022-10-12T17:23:42;17.33;;;4.80;;
6689;SDS011;3382;51.576;8.076;2022-10-12T17:26:07;11.10;;;4.80;;
6689;SDS011;3382;51.576;8.076;2022-10-12T17:28:39;5.83;;;3.73;;
6689;SDS011;3382;51.576;8.076;2022-10-12T17:31:05;9.77;;;4.50;;